EGXV

RAF Leconfield Airport

Leconfield, United Kingdom
METAR EGXV 242350Z AUTO 26005KT 9999 BKN034/// SCT050/// 08/08 Q1005 RERA
Observed Flight Rules
Apr-24 @ 23:50 UTC (an hour ago) Visual Flight Rules
Wind Visibility Clouds
260° at 5 knots 10,000+ meters
  • Broken at 3,400' AGL
  • Scattered at 5,000' AGL
Temperatures Readings
Current 8°C / 46°F
Dewpoint 8°C / 46°F
Humidity 100%
Altimeter 29.68" Hg
Pressure 1005 hPa
Elevation 6
METAR EGXV 242350Z AUTO 26005KT 9999 BKN034/// SCT050/// 08/08 Q1005 RERA
Observed Flight Rules
Apr-24 @ 23:50 UTC
(an hour ago)
VFR
Wind Visibility
260° at 5 knots 10,000+ meters
Clouds
  • Broken at 3,400' AGL
  • Scattered at 5,000' AGL
Temperature Dewpoint
8°C / 46°F 8°C / 46°F
Humidity Altimeter Pressure
100% 29.68" Hg 1005 hPa